Time;durP1;ratioP1;P1;durP2;ratioP2;P2;SDS_P1;SDS_P2;PMS_P1;PMS_P2;Temp;Humidity;BMP_temperature;BMP_pressure;BME280_temperature;BME280_humidity;BME280_pressure;Samples;Min_cycle;Max_cycle;Signal;HPM_P1;HPM_P2
2022/02/02 00:00:31;;;;;;;5.28;2.05;;;;;;;;;;5053534;28;20021;-65
2022/02/02 00:03:05;;;;;;;4.18;1.88;;;;;;;;;;5053679;28;20482;-67
2022/02/02 00:06:04;;;;;;;4.30;1.52;;;;;;;;;;5052713;28;20032;-68
2022/02/02 00:08:25;;;;;;;4.07;1.80;;;;;;;;;;5037631;28;20087;-67
2022/02/02 00:13:55;;;;;;;6.05;1.55;;;;;;;;;;5053401;28;20074;-68
2022/02/02 00:19:39;;;;;;;3.15;1.30;;;;;;;;;;5050183;28;20036;-66
2022/02/02 00:21:59;;;;;;;5.38;1.65;;;;;;;;;;5051788;28;20098;-67
2022/02/02 00:26:57;;;;;;;3.22;1.52;;;;;;;;;;5041043;28;20394;-65
2022/02/02 00:29:31;;;;;;;2.85;1.25;;;;;;;;;;5047960;28;20025;-65
2022/02/02 00:32:07;;;;;;;3.75;1.60;;;;;;;;;;5045981;28;20444;-68
2022/02/02 00:34:33;;;;;;;4.63;1.70;;;;;;;;;;5052488;28;20120;-67
2022/02/02 00:37:00;;;;;;;3.20;1.55;;;;;;;;;;5052317;28;20046;-67
2022/02/02 00:39:27;;;;;;;4.00;1.50;;;;;;;;;;5052655;28;20175;-68
2022/02/02 00:41:54;;;;;;;3.45;1.35;;;;;;;;;;5040589;28;20021;-67
2022/02/02 00:44:21;;;;;;;3.10;1.33;;;;;;;;;;5032558;28;20018;-65
2022/02/02 00:46:47;;;;;;;4.88;1.38;;;;;;;;;;5032685;28;20407;-66
2022/02/02 00:49:14;;;;;;;2.58;1.17;;;;;;;;;;5032745;28;20108;-66
2022/02/02 00:51:49;;;;;;;3.35;1.52;;;;;;;;;;5052346;28;20368;-69
2022/02/02 00:54:20;;;;;;;4.90;1.50;;;;;;;;;;5052276;28;20059;-67
2022/02/02 00:56:47;;;;;;;2.17;1.00;;;;;;;;;;5052232;28;20028;-67
2022/02/02 00:59:13;;;;;;;2.92;1.10;;;;;;;;;;5037601;28;20021;-67
2022/02/02 01:01:39;;;;;;;3.47;1.48;;;;;;;;;;5032187;28;20022;-68
2022/02/02 01:04:06;;;;;;;3.35;1.23;;;;;;;;;;5032376;28;20044;-66
2022/02/02 01:06:36;;;;;;;3.97;1.52;;;;;;;;;;5030923;28;20029;-67
2022/02/02 01:27:49;;;;;;;2.53;1.33;;;;;;;;;;5047201;28;20040;-66
2022/02/02 01:30:08;;;;;;;2.90;1.30;;;;;;;;;;5037351;28;20633;-67
2022/02/02 01:32:34;;;;;;;2.85;1.40;;;;;;;;;;5030778;28;20376;-66
2022/02/02 01:35:01;;;;;;;2.60;1.25;;;;;;;;;;5031693;28;20037;-65
2022/02/02 01:37:28;;;;;;;2.92;1.08;;;;;;;;;;5031852;28;20025;-66
2022/02/02 01:40:03;;;;;;;9.43;1.25;;;;;;;;;;5037244;28;20035;-66
2022/02/02 01:42:37;;;;;;;3.75;1.00;;;;;;;;;;5051163;28;20018;-66
2022/02/02 01:45:12;;;;;;;2.17;1.08;;;;;;;;;;5051107;28;20353;-64
2022/02/02 01:47:49;;;;;;;3.03;1.20;;;;;;;;;;5051167;28;20423;-66
2022/02/02 01:50:21;;;;;;;3.33;1.20;;;;;;;;;;5036260;28;20548;-67
2022/02/02 01:53:17;;;;;;;5.38;1.10;;;;;;;;;;5031304;28;20029;-66
2022/02/02 01:55:39;;;;;;;4.53;1.70;;;;;;;;;;5030899;28;20124;-66
2022/02/02 01:58:35;;;;;;;2.55;1.15;;;;;;;;;;5031827;28;20021;-66
2022/02/02 02:01:02;;;;;;;10.88;1.50;;;;;;;;;;5030933;28;20435;-65
2022/02/02 02:03:28;;;;;;;2.33;1.00;;;;;;;;;;5030954;28;20141;-66
2022/02/02 02:05:54;;;;;;;2.95;1.00;;;;;;;;;;5031629;28;20021;-65
2022/02/02 02:08:20;;;;;;;4.57;1.15;;;;;;;;;;5030956;28;20033;-64
2022/02/02 02:10:46;;;;;;;4.72;1.15;;;;;;;;;;5031066;28;20028;-66
2022/02/02 02:13:30;;;;;;;2.97;1.30;;;;;;;;;;5029630;28;20503;-66
2022/02/02 02:15:56;;;;;;;3.03;1.25;;;;;;;;;;5029511;28;20025;-66
2022/02/02 02:18:22;;;;;;;5.07;1.45;;;;;;;;;;5030855;28;20026;-65
2022/02/02 02:20:48;;;;;;;4.60;1.25;;;;;;;;;;5030943;28;20079;-66
2022/02/02 02:23:15;;;;;;;4.93;1.20;;;;;;;;;;5031579;28;20029;-66
2022/02/02 02:25:42;;;;;;;4.82;1.20;;;;;;;;;;5030509;28;20481;-66
2022/02/02 02:30:51;;;;;;;3.97;0.95;;;;;;;;;;5030704;28;20099;-65
2022/02/02 03:30:08;;;;;;;2.75;1.23;;;;;;;;;;5033998;28;20121;-67
2022/02/02 03:35:21;;;;;;;3.65;1.20;;;;;;;;;;5033546;28;20487;-65
2022/02/02 03:52:35;;;;;;;3.53;1.48;;;;;;;;;;5033009;28;20676;-63
2022/02/02 03:54:46;;;;;;;3.17;1.30;;;;;;;;;;5031629;28;20501;-63
2022/02/02 04:00:12;;;;;;;2.92;1.38;;;;;;;;;;5033231;28;20112;-65
2022/02/02 04:05:25;;;;;;;3.17;1.45;;;;;;;;;;5033379;28;20112;-64
2022/02/02 04:07:49;;;;;;;2.70;0.98;;;;;;;;;;5032583;28;20135;-64
2022/02/02 04:10:16;;;;;;;2.72;1.27;;;;;;;;;;5032756;28;20503;-67
2022/02/02 05:07:31;;;;;;;4.88;1.25;;;;;;;;;;5031529;28;20064;-66
2022/02/02 05:13:01;;;;;;;3.65;1.42;;;;;;;;;;5031980;28;20507;-66
2022/02/02 05:16:13;;;;;;;3.33;1.40;;;;;;;;;;5031250;28;20052;-66
2022/02/02 05:53:05;;;;;;;3.70;1.38;;;;;;;;;;5030797;28;20491;-65
2022/02/02 05:55:50;;;;;;;6.55;1.50;;;;;;;;;;5031075;28;20123;-65
2022/02/02 05:58:18;;;;;;;5.53;2.30;;;;;;;;;;5029702;28;20071;-66
2022/02/02 06:00:44;;;;;;;23.23;9.10;;;;;;;;;;5030775;28;20029;-66
2022/02/02 06:03:14;;;;;;;27.50;12.68;;;;;;;;;;5031102;28;20018;-66
2022/02/02 06:05:42;;;;;;;19.40;7.90;;;;;;;;;;5031556;28;20085;-66
2022/02/02 06:08:11;;;;;;;12.68;6.72;;;;;;;;;;5030896;28;20041;-65
2022/02/02 06:10:38;;;;;;;16.08;7.05;;;;;;;;;;5030867;28;20407;-65
2022/02/02 06:13:05;;;;;;;34.58;8.70;;;;;;;;;;5031031;28;20095;-65
2022/02/02 06:15:32;;;;;;;23.42;6.32;;;;;;;;;;5040442;28;20480;-66
2022/02/02 06:18:00;;;;;;;19.30;6.22;;;;;;;;;;5051086;28;20029;-68
2022/02/02 06:20:26;;;;;;;16.33;5.95;;;;;;;;;;5051178;28;20029;-68
2022/02/02 06:22:55;;;;;;;13.15;4.95;;;;;;;;;;5036623;28;20052;-68
2022/02/02 06:25:22;;;;;;;12.20;5.03;;;;;;;;;;5054406;28;20047;-68
2022/02/02 06:27:52;;;;;;;11.43;4.80;;;;;;;;;;5049981;28;20025;-69
2022/02/02 06:30:18;;;;;;;9.93;4.68;;;;;;;;;;5045214;28;20029;-67
2022/02/02 06:32:52;;;;;;;12.23;4.47;;;;;;;;;;5054927;28;20668;-67
2022/02/02 06:35:19;;;;;;;9.45;4.00;;;;;;;;;;5055196;28;20024;-67
2022/02/02 06:37:46;;;;;;;10.88;4.50;;;;;;;;;;5052165;28;20510;-65
2022/02/02 06:40:12;;;;;;;15.75;4.20;;;;;;;;;;5034443;28;20499;-66
2022/02/02 06:42:39;;;;;;;9.77;4.07;;;;;;;;;;5034247;28;20033;-68
2022/02/02 06:45:06;;;;;;;8.50;3.42;;;;;;;;;;5034346;28;20029;-67
2022/02/02 06:47:34;;;;;;;8.35;3.67;;;;;;;;;;5034266;28;20030;-66
2022/02/02 06:50:15;;;;;;;9.07;3.72;;;;;;;;;;5034358;28;20369;-67
2022/02/02 06:52:46;;;;;;;7.10;3.22;;;;;;;;;;5052580;28;20419;-64
2022/02/02 06:55:26;;;;;;;8.82;3.67;;;;;;;;;;5047299;28;20033;-64
2022/02/02 06:57:54;;;;;;;9.20;3.35;;;;;;;;;;5054035;28;20025;-67
2022/02/02 07:03:10;;;;;;;6.38;2.92;;;;;;;;;;5053888;28;20116;-65
2022/02/02 07:11:09;;;;;;;12.30;2.92;;;;;;;;;;5053751;28;20035;-64
2022/02/02 07:29:31;;;;;;;7.68;2.33;;;;;;;;;;5032706;28;20678;-65
2022/02/02 07:34:43;;;;;;;5.90;2.28;;;;;;;;;;5032846;28;20028;-66
2022/02/02 07:37:14;;;;;;;4.75;2.10;;;;;;;;;;5032874;28;20132;-65
2022/02/02 07:39:42;;;;;;;4.85;2.38;;;;;;;;;;5033227;28;20405;-64
2022/02/02 07:42:10;;;;;;;4.57;2.30;;;;;;;;;;5031978;28;20057;-66
2022/02/02 07:44:37;;;;;;;5.70;2.45;;;;;;;;;;5032189;28;20516;-66
2022/02/02 07:47:08;;;;;;;5.60;2.28;;;;;;;;;;5033418;28;20741;-66
2022/02/02 07:49:36;;;;;;;4.80;2.00;;;;;;;;;;5032751;28;20076;-65
2022/02/02 07:52:04;;;;;;;5.03;1.80;;;;;;;;;;5032697;28;20483;-67
2022/02/02 07:54:35;;;;;;;5.53;2.25;;;;;;;;;;5032714;28;20034;-65
2022/02/02 07:57:05;;;;;;;7.05;2.20;;;;;;;;;;5031529;28;20037;-67
2022/02/02 07:59:45;;;;;;;4.88;2.03;;;;;;;;;;5032599;28;20021;-66
2022/02/02 08:02:13;;;;;;;4.80;1.70;;;;;;;;;;5032661;28;20049;-67
2022/02/02 08:04:39;;;;;;;3.42;1.63;;;;;;;;;;5031989;28;20028;-66
2022/02/02 08:07:07;;;;;;;5.90;2.33;;;;;;;;;;5032332;28;20029;-64
2022/02/02 08:09:46;;;;;;;4.28;1.85;;;;;;;;;;5032438;28;20104;-66
2022/02/02 08:12:19;;;;;;;5.60;1.67;;;;;;;;;;5031879;28;20027;-64
2022/02/02 08:14:53;;;;;;;5.25;2.05;;;;;;;;;;5032088;28;20384;-65
2022/02/02 08:17:19;;;;;;;4.57;1.75;;;;;;;;;;5047142;28;20094;-66
2022/02/02 08:19:45;;;;;;;4.40;1.83;;;;;;;;;;5048000;28;20044;-66
2022/02/02 08:22:11;;;;;;;4.63;1.80;;;;;;;;;;5032244;28;20546;-66
2022/02/02 08:24:38;;;;;;;5.65;1.40;;;;;;;;;;5032011;28;20057;-66
2022/02/02 08:27:04;;;;;;;4.38;1.70;;;;;;;;;;5032146;28;20104;-65
2022/02/02 08:29:31;;;;;;;4.68;1.67;;;;;;;;;;5030898;28;20376;-66
2022/02/02 08:31:57;;;;;;;4.18;1.55;;;;;;;;;;5031775;28;20021;-64
2022/02/02 08:34:23;;;;;;;5.55;1.73;;;;;;;;;;5030695;28;20025;-66
2022/02/02 08:36:54;;;;;;;3.35;1.40;;;;;;;;;;5031616;28;20033;-64
2022/02/02 08:42:03;;;;;;;3.42;1.55;;;;;;;;;;5030844;28;20869;-66
2022/02/02 08:44:41;;;;;;;3.95;1.55;;;;;;;;;;5031447;28;20461;-65
2022/02/02 08:47:09;;;;;;;8.13;1.63;;;;;;;;;;5031207;28;20489;-68
2022/02/02 08:49:43;;;;;;;3.25;1.15;;;;;;;;;;5031591;28;20017;-67
2022/02/02 08:52:09;;;;;;;5.47;1.80;;;;;;;;;;5030364;28;20025;-67
2022/02/02 08:54:45;;;;;;;3.08;1.38;;;;;;;;;;5031844;28;20400;-65
2022/02/02 08:57:24;;;;;;;4.15;1.50;;;;;;;;;;5031323;28;20029;-65
2022/02/02 08:59:56;;;;;;;2.78;1.20;;;;;;;;;;5031270;28;20329;-66
2022/02/02 09:02:27;;;;;;;3.15;1.20;;;;;;;;;;5030464;28;20071;-67
2022/02/02 09:07:38;;;;;;;6.65;1.48;;;;;;;;;;5031411;28;20032;-65
2022/02/02 09:33:58;;;;;;;5.80;1.00;;;;;;;;;;5039761;28;20029;-65
2022/02/02 09:36:29;;;;;;;4.40;1.00;;;;;;;;;;5050774;28;20120;-65
2022/02/02 09:38:57;;;;;;;3.35;1.20;;;;;;;;;;5032506;28;20031;-69
2022/02/02 09:41:36;;;;;;;2.55;0.80;;;;;;;;;;5031275;28;20461;-65
2022/02/02 09:44:05;;;;;;;2.22;0.80;;;;;;;;;;5031116;28;20161;-68
2022/02/02 09:46:37;;;;;;;3.63;0.80;;;;;;;;;;5031257;28;20377;-65
2022/02/02 09:49:08;;;;;;;3.58;1.02;;;;;;;;;;5029531;28;20033;-65
2022/02/02 09:51:40;;;;;;;2.38;0.82;;;;;;;;;;5051188;28;20468;-67
2022/02/02 10:05:08;;;;;;;2.78;1.00;;;;;;;;;;5029536;28;20034;-66
2022/02/02 10:13:35;;;;;;;1.73;0.75;;;;;;;;;;5034549;28;20105;-69
2022/02/02 10:16:01;;;;;;;2.92;0.80;;;;;;;;;;5043367;28;20079;-70
2022/02/02 10:18:37;;;;;;;4.18;0.82;;;;;;;;;;5047963;28;20029;-68
2022/02/02 10:21:03;;;;;;;2.88;0.77;;;;;;;;;;5038086;28;20021;-69
2022/02/02 10:23:31;;;;;;;2.83;1.00;;;;;;;;;;5050206;28;20104;-67
2022/02/02 10:26:12;;;;;;;2.83;0.90;;;;;;;;;;5050608;28;20056;-68
2022/02/02 10:28:38;;;;;;;2.33;0.80;;;;;;;;;;5045778;28;20024;-69
2022/02/02 10:31:05;;;;;;;2.10;0.85;;;;;;;;;;5030223;28;20029;-68
2022/02/02 10:33:32;;;;;;;2.35;0.70;;;;;;;;;;5030638;28;20022;-64
2022/02/02 10:36:11;;;;;;;4.93;0.90;;;;;;;;;;5030917;28;20183;-64
2022/02/02 10:38:50;;;;;;;2.63;0.80;;;;;;;;;;5030770;28;20018;-65
2022/02/02 10:41:31;;;;;;;3.17;1.10;;;;;;;;;;5031113;28;20030;-64
2022/02/02 10:44:01;;;;;;;3.65;0.98;;;;;;;;;;5032057;28;20079;-64
2022/02/02 10:49:04;;;;;;;2.47;0.77;;;;;;;;;;5051107;28;20024;-65
2022/02/02 10:59:24;;;;;;;6.78;1.70;;;;;;;;;;5050816;28;20029;-64
2022/02/02 11:07:07;;;;;;;11.52;1.90;;;;;;;;;;5054179;28;20044;-65
2022/02/02 11:09:33;;;;;;;5.07;1.23;;;;;;;;;;5052461;28;20025;-65
2022/02/02 11:11:59;;;;;;;8.98;1.25;;;;;;;;;;5037747;28;20395;-64
2022/02/02 11:14:44;;;;;;;6.18;1.30;;;;;;;;;;5046167;28;20025;-65
2022/02/02 11:17:26;;;;;;;7.93;1.25;;;;;;;;;;5034813;28;20040;-64
2022/02/02 11:19:58;;;;;;;7.90;1.95;;;;;;;;;;5032480;28;20025;-65
2022/02/02 11:22:31;;;;;;;5.95;1.98;;;;;;;;;;5033889;28;20048;-65
2022/02/02 11:25:20;;;;;;;8.70;1.70;;;;;;;;;;5033633;28;20477;-65
2022/02/02 11:27:48;;;;;;;8.80;1.60;;;;;;;;;;5033458;28;20025;-66
2022/02/02 11:30:24;;;;;;;9.20;1.83;;;;;;;;;;5032120;28;20060;-65
2022/02/02 11:32:57;;;;;;;7.57;1.38;;;;;;;;;;5033587;28;20040;-65
2022/02/02 11:35:54;;;;;;;4.63;1.30;;;;;;;;;;5033568;28;20026;-64
2022/02/02 11:38:28;;;;;;;4.95;1.10;;;;;;;;;;5033624;28;20044;-65
2022/02/02 11:46:33;;;;;;;4.28;1.42;;;;;;;;;;5033372;28;20041;-65
2022/02/02 11:49:03;;;;;;;7.60;1.27;;;;;;;;;;5029069;28;20120;-64
2022/02/02 11:51:46;;;;;;;4.10;1.27;;;;;;;;;;5031841;28;20504;-65
2022/02/02 11:54:16;;;;;;;5.13;1.58;;;;;;;;;;5032040;28;20059;-65
2022/02/02 11:57:10;;;;;;;4.53;1.27;;;;;;;;;;5032284;28;20033;-63
2022/02/02 12:10:35;;;;;;;3.55;1.10;;;;;;;;;;5032394;28;20040;-65
2022/02/02 12:19:19;;;;;;;4.57;1.20;;;;;;;;;;5033190;28;20083;-65
2022/02/02 12:55:32;;;;;;;3.25;0.90;;;;;;;;;;5051957;28;20120;-65
2022/02/02 12:57:37;;;;;;;3.35;0.85;;;;;;;;;;5051436;28;20128;-64
2022/02/02 13:02:52;;;;;;;3.80;1.05;;;;;;;;;;5050243;28;20036;-64
2022/02/02 13:05:24;;;;;;;3.00;1.10;;;;;;;;;;5051752;28;20028;-64
2022/02/02 13:07:52;;;;;;;4.50;1.23;;;;;;;;;;5051690;28;20072;-63
2022/02/02 13:10:21;;;;;;;3.05;1.10;;;;;;;;;;5051147;28;20025;-64
2022/02/02 13:12:55;;;;;;;3.45;1.20;;;;;;;;;;5051786;28;20049;-63
2022/02/02 13:23:18;;;;;;;3.28;1.08;;;;;;;;;;5055084;28;20200;-62
2022/02/02 13:25:49;;;;;;;4.05;1.17;;;;;;;;;;5058253;28;20117;-63
2022/02/02 13:28:15;;;;;;;4.72;1.40;;;;;;;;;;5051136;28;20075;-63
2022/02/02 13:30:50;;;;;;;3.00;0.93;;;;;;;;;;5056159;28;20095;-64
2022/02/02 13:33:30;;;;;;;2.85;0.75;;;;;;;;;;5051368;28;20095;-63
2022/02/02 13:36:38;;;;;;;3.75;0.95;;;;;;;;;;5051502;28;20036;-64
2022/02/02 13:42:17;;;;;;;2.03;0.60;;;;;;;;;;5048844;28;20065;-64
2022/02/02 13:45:11;;;;;;;2.70;1.00;;;;;;;;;;5071343;28;20031;-64
2022/02/02 13:50:42;;;;;;;2.58;0.98;;;;;;;;;;5071327;28;20097;-63
2022/02/02 14:33:23;;;;;;;2.15;0.70;;;;;;;;;;5071589;28;20044;-65
2022/02/02 14:35:53;;;;;;;3.28;1.05;;;;;;;;;;5031343;28;20040;-65
2022/02/02 14:38:19;;;;;;;1.63;0.63;;;;;;;;;;5030529;28;20025;-64
2022/02/02 14:43:15;;;;;;;3.40;0.90;;;;;;;;;;5034759;28;20030;-65
2022/02/02 14:45:46;;;;;;;7.32;1.13;;;;;;;;;;5033926;28;20108;-64
2022/02/02 14:48:33;;;;;;;3.33;1.00;;;;;;;;;;5034403;28;20124;-65
2022/02/02 15:08:59;;;;;;;4.22;1.30;;;;;;;;;;5054750;28;20411;-67
2022/02/02 15:31:47;;;;;;;1.92;0.68;;;;;;;;;;5022307;28;20470;-64
2022/02/02 15:34:20;;;;;;;2.38;0.85;;;;;;;;;;5073184;28;20008;-65
2022/02/02 15:39:23;;;;;;;3.72;1.10;;;;;;;;;;5074032;28;20062;-65
2022/02/02 15:55:54;;;;;;;3.75;1.20;;;;;;;;;;5073757;28;20055;-65
2022/02/02 16:03:14;;;;;;;2.95;0.95;;;;;;;;;;5073016;28;20035;-62
2022/02/02 16:05:50;;;;;;;3.53;1.02;;;;;;;;;;5073222;28;20535;-63
2022/02/02 16:08:21;;;;;;;6.60;1.10;;;;;;;;;;5073386;28;20024;-66
2022/02/02 16:15:57;;;;;;;;;;;;;;;;;;5073886;28;20209;-65
2022/02/02 16:32:21;;;;;;;3.22;1.10;;;;;;;;;;5053366;28;20105;-63
2022/02/02 16:37:26;;;;;;;2.40;0.88;;;;;;;;;;5052630;28;20044;-64
2022/02/02 16:39:58;;;;;;;4.32;0.90;;;;;;;;;;5043748;28;20017;-64
2022/02/02 16:45:09;;;;;;;2.70;0.77;;;;;;;;;;5032664;28;20044;-62
2022/02/02 16:47:35;;;;;;;1.90;0.70;;;;;;;;;;5032336;28;20018;-64
2022/02/02 16:50:01;;;;;;;5.32;1.10;;;;;;;;;;5040593;28;20029;-62
2022/02/02 16:52:30;;;;;;;3.45;1.00;;;;;;;;;;5052290;28;20025;-64
2022/02/02 16:55:00;;;;;;;2.30;0.82;;;;;;;;;;5054118;28;20086;-65
2022/02/02 16:57:46;;;;;;;2.58;0.63;;;;;;;;;;5051543;28;20395;-66
2022/02/02 17:40:39;;;;;;;4.07;1.05;;;;;;;;;;5038171;28;20032;-67
2022/02/02 17:45:57;;;;;;;5.20;1.27;;;;;;;;;;5052000;28;20036;-68
2022/02/02 18:20:51;;;;;;;3.28;1.20;;;;;;;;;;5035920;28;20091;-66
2022/02/02 18:54:59;;;;;;;4.03;1.38;;;;;;;;;;5054987;28;20634;-63
2022/02/02 19:05:52;;;;;;;4.47;1.30;;;;;;;;;;5055217;28;20121;-67
2022/02/02 20:05:36;;;;;;;3.92;1.35;;;;;;;;;;5052242;28;20075;-65
2022/02/02 20:11:00;;;;;;;4.57;1.60;;;;;;;;;;5053068;28;20099;-65
2022/02/02 20:13:26;;;;;;;5.93;1.73;;;;;;;;;;5052996;28;20083;-66
2022/02/02 20:15:52;;;;;;;5.40;1.65;;;;;;;;;;5033621;28;20120;-67
2022/02/02 20:18:18;;;;;;;4.18;1.50;;;;;;;;;;5033168;28;20026;-66
2022/02/02 20:20:45;;;;;;;3.55;1.33;;;;;;;;;;5031786;28;20136;-66
2022/02/02 20:23:13;;;;;;;4.68;1.20;;;;;;;;;;5032803;28;20021;-66
2022/02/02 20:25:45;;;;;;;5.57;1.58;;;;;;;;;;5032774;28;20053;-66
2022/02/02 20:28:11;;;;;;;4.57;1.40;;;;;;;;;;5032039;28;20024;-65
2022/02/02 20:30:38;;;;;;;4.78;1.48;;;;;;;;;;5033479;28;20029;-67
2022/02/02 20:33:05;;;;;;;5.38;1.65;;;;;;;;;;5032937;28;20024;-66
2022/02/02 20:35:31;;;;;;;4.32;1.40;;;;;;;;;;5032815;28;20041;-68
2022/02/02 20:37:57;;;;;;;5.10;1.48;;;;;;;;;;5048283;28;20017;-66
2022/02/02 20:40:25;;;;;;;3.95;1.40;;;;;;;;;;5052696;28;20029;-67
2022/02/02 21:06:44;;;;;;;6.20;1.55;;;;;;;;;;5036196;28;20037;-67
2022/02/02 21:14:44;;;;;;;5.50;1.45;;;;;;;;;;5032270;28;20487;-65
2022/02/02 21:17:19;;;;;;;4.97;1.52;;;;;;;;;;5031941;28;20065;-65
2022/02/02 21:20:50;;;;;;;6.68;1.60;;;;;;;;;;5031892;28;20049;-64
2022/02/02 21:22:54;;;;;;;5.35;1.33;;;;;;;;;;5031397;28;20029;-64
2022/02/02 21:28:07;;;;;;;5.80;1.17;;;;;;;;;;5032200;28;20087;-64
2022/02/02 21:30:33;;;;;;;5.45;1.38;;;;;;;;;;5032143;28;20028;-62
2022/02/02 21:32:59;;;;;;;4.65;1.42;;;;;;;;;;5032031;28;20032;-65
2022/02/02 21:35:26;;;;;;;5.72;1.40;;;;;;;;;;5032042;28;20027;-67
2022/02/02 21:38:01;;;;;;;4.20;1.30;;;;;;;;;;5047376;28;20025;-66
2022/02/02 21:40:28;;;;;;;3.88;1.15;;;;;;;;;;5051057;28;20009;-65
2022/02/02 21:42:55;;;;;;;5.88;1.50;;;;;;;;;;5052006;28;20480;-63
2022/02/02 21:45:22;;;;;;;4.53;1.50;;;;;;;;;;5051724;28;20056;-63
2022/02/02 21:47:48;;;;;;;6.05;1.73;;;;;;;;;;5050035;28;20055;-65
2022/02/02 21:50:18;;;;;;;3.38;1.17;;;;;;;;;;5051147;28;20017;-66
2022/02/02 21:52:44;;;;;;;6.40;1.33;;;;;;;;;;5051601;28;20028;-64
2022/02/02 21:55:11;;;;;;;4.78;1.23;;;;;;;;;;5044048;28;20029;-67
2022/02/02 21:57:37;;;;;;;4.40;1.40;;;;;;;;;;5050379;28;20033;-66
2022/02/02 22:00:09;;;;;;;4.63;1.48;;;;;;;;;;5035742;28;20017;-64
2022/02/02 22:02:36;;;;;;;4.73;1.60;;;;;;;;;;5031884;28;20026;-66
2022/02/02 22:05:03;;;;;;;4.53;1.50;;;;;;;;;;5031696;28;20465;-67
2022/02/02 22:07:29;;;;;;;4.35;1.30;;;;;;;;;;5031369;28;20036;-65
2022/02/02 22:09:57;;;;;;;5.13;1.45;;;;;;;;;;5031660;28;20029;-66
2022/02/02 22:12:24;;;;;;;5.85;1.50;;;;;;;;;;5030190;28;20031;-68
2022/02/02 22:14:52;;;;;;;5.15;1.48;;;;;;;;;;5034691;28;20039;-65
2022/02/02 22:17:19;;;;;;;6.45;1.20;;;;;;;;;;5051185;28;20443;-67
2022/02/02 22:19:49;;;;;;;5.45;1.20;;;;;;;;;;5050295;28;20025;-65
2022/02/02 22:22:16;;;;;;;4.97;1.42;;;;;;;;;;5051580;28;20027;-65
2022/02/02 22:24:42;;;;;;;5.93;1.35;;;;;;;;;;5051439;28;20049;-67
2022/02/02 22:27:08;;;;;;;7.65;1.45;;;;;;;;;;5051407;28;20033;-67
2022/02/02 22:29:34;;;;;;;4.03;1.20;;;;;;;;;;5051265;28;20025;-68
2022/02/02 22:32:00;;;;;;;3.83;1.23;;;;;;;;;;5051561;28;20017;-66
2022/02/02 22:34:26;;;;;;;5.63;1.50;;;;;;;;;;5051630;28;20068;-67
2022/02/02 22:36:55;;;;;;;4.47;1.10;;;;;;;;;;5051522;28;20029;-67
2022/02/02 22:39:21;;;;;;;3.97;1.38;;;;;;;;;;5051499;28;20021;-68
2022/02/02 22:41:48;;;;;;;5.50;1.55;;;;;;;;;;5050335;28;20480;-66
2022/02/02 22:44:15;;;;;;;3.75;1.50;;;;;;;;;;5051634;28;20067;-64
2022/02/02 22:46:42;;;;;;;6.22;1.23;;;;;;;;;;5051566;28;20021;-64
2022/02/02 22:49:08;;;;;;;5.40;1.25;;;;;;;;;;5051521;28;20028;-65
2022/02/02 22:51:34;;;;;;;5.32;1.70;;;;;;;;;;5051508;28;20151;-64
2022/02/02 22:54:01;;;;;;;5.28;1.23;;;;;;;;;;5051549;28;20443;-65
2022/02/02 22:56:27;;;;;;;4.03;1.50;;;;;;;;;;5049768;28;20389;-65
2022/02/02 22:58:56;;;;;;;7.00;1.50;;;;;;;;;;5051282;28;20021;-65
2022/02/02 23:01:22;;;;;;;3.78;1.42;;;;;;;;;;5054487;28;20084;-65
2022/02/02 23:03:51;;;;;;;3.65;1.33;;;;;;;;;;5055174;28;20021;-66
2022/02/02 23:06:17;;;;;;;3.45;1.20;;;;;;;;;;5055282;28;20053;-65
2022/02/02 23:08:43;;;;;;;4.30;1.25;;;;;;;;;;5055098;28;20021;-65
2022/02/02 23:11:09;;;;;;;5.43;1.33;;;;;;;;;;5055009;28;20032;-65
2022/02/02 23:13:35;;;;;;;5.95;1.30;;;;;;;;;;5053518;28;20104;-65
2022/02/02 23:16:14;;;;;;;5.88;1.52;;;;;;;;;;5054618;28;20470;-67
2022/02/02 23:18:41;;;;;;;7.30;1.77;;;;;;;;;;5053712;28;20033;-65
2022/02/02 23:21:10;;;;;;;3.78;1.30;;;;;;;;;;5054889;28;20115;-68
2022/02/02 23:23:38;;;;;;;4.10;1.58;;;;;;;;;;5054875;28;20507;-64
2022/02/02 23:26:05;;;;;;;4.45;1.55;;;;;;;;;;5054605;28;20462;-66
2022/02/02 23:28:36;;;;;;;4.55;1.30;;;;;;;;;;5054303;28;20109;-65
2022/02/02 23:31:05;;;;;;;4.88;1.73;;;;;;;;;;5052897;28;20508;-66
2022/02/02 23:33:32;;;;;;;3.97;1.23;;;;;;;;;;5054280;28;20032;-63
2022/02/02 23:35:58;;;;;;;4.90;1.50;;;;;;;;;;5054583;28;20052;-65
2022/02/02 23:38:24;;;;;;;3.47;1.40;;;;;;;;;;5054448;28;20017;-67
2022/02/02 23:43:36;;;;;;;6.57;1.60;;;;;;;;;;5054453;28;20131;-63
2022/02/02 23:46:10;;;;;;;5.97;1.60;;;;;;;;;;5054392;28;20032;-64
2022/02/02 23:48:41;;;;;;;4.90;1.50;;;;;;;;;;5054204;28;20033;-63
2022/02/02 23:51:08;;;;;;;5.78;1.60;;;;;;;;;;5054500;28;20092;-68
2022/02/02 23:53:41;;;;;;;5.10;1.45;;;;;;;;;;5054120;28;20029;-65
2022/02/02 23:59:13;;;;;;;9.82;1.70;;;;;;;;;;5052677;28;20084;-63
